THY1525 LTFM-LTAU
Flight info
| Callsign | THY1525 |
|---|---|
| Flight time | 1h 5m |
| Altitude | 33000 |
| Route | ASMAP UT341 BAG UA17 YUCEL UL605 BELSU UA17 KISLA |
| Aircraft | A320/M-SDE3FGHIRWY/LB1 |
Departure
| Time | 2026-05-04 19:06 |
|---|---|
| Airport | İstanbul Airport (LTFM) |
Arrival
| Time | 2026-05-04 20:11 |
|---|---|
| Airport | Kayseri Erkilet International Airport (LTAU) |
| Time | Latitude | Longitude | Altitude | Speed | Heading |
|---|---|---|---|---|---|
| 2026-05-04 18:35 | 41.26357 | 28.73935 | 334 ft | 0 kts | 198° |
| 2026-05-04 18:40 | 41.26358 | 28.73935 | 334 ft | 0 kts | 198° |
| 2026-05-04 18:40 | 41.26358 | 28.73936 | 334 ft | 0 kts | 198° |
| 2026-05-04 18:53 | 41.26363 | 28.73938 | 334 ft | 4 kts | 197° |
| 2026-05-04 18:54 | 41.26389 | 28.73947 | 332 ft | 4 kts | 187° |
| 2026-05-04 18:54 | 41.26415 | 28.73946 | 331 ft | 4 kts | 151° |
| 2026-05-04 18:54 | 41.26424 | 28.73937 | 332 ft | 0 kts | 129° |
| 2026-05-04 18:59 | 41.26424 | 28.73938 | 331 ft | 1 kts | 129° |
| 2026-05-04 18:59 | 41.26412 | 28.73972 | 332 ft | 8 kts | 101° |
| 2026-05-04 18:59 | 41.26469 | 28.74027 | 334 ft | 15 kts | 358° |
| 2026-05-04 19:00 | 41.26627 | 28.74023 | 333 ft | 29 kts | 359° |
| 2026-05-04 19:00 | 41.26827 | 28.74015 | 333 ft | 24 kts | 358° |
| 2026-05-04 19:00 | 41.27000 | 28.74014 | 333 ft | 24 kts | 359° |
| 2026-05-04 19:00 | 41.27053 | 28.73936 | 332 ft | 13 kts | 269° |
| 2026-05-04 19:01 | 41.27051 | 28.73786 | 334 ft | 20 kts | 269° |
| 2026-05-04 19:01 | 41.27049 | 28.73591 | 334 ft | 22 kts | 268° |
| 2026-05-04 19:01 | 41.27045 | 28.73374 | 331 ft | 25 kts | 269° |
| 2026-05-04 19:01 | 41.27042 | 28.73138 | 334 ft | 27 kts | 269° |
| 2026-05-04 19:02 | 41.27009 | 28.72985 | 334 ft | 14 kts | 189° |
| 2026-05-04 19:02 | 41.26890 | 28.72989 | 333 ft | 21 kts | 179° |
| 2026-05-04 19:02 | 41.26745 | 28.72992 | 332 ft | 15 kts | 179° |
| 2026-05-04 19:02 | 41.26715 | 28.72956 | 331 ft | 7 kts | 283° |
| 2026-05-04 19:03 | 41.26714 | 28.72866 | 334 ft | 16 kts | 269° |
| 2026-05-04 19:03 | 41.26712 | 28.72691 | 333 ft | 21 kts | 269° |
| 2026-05-04 19:03 | 41.26719 | 28.72525 | 330 ft | 12 kts | 304° |
| 2026-05-04 19:03 | 41.26752 | 28.72514 | 333 ft | 0 kts | 359° |
| 2026-05-04 19:04 | 41.26754 | 28.72514 | 333 ft | 1 kts | 359° |
| 2026-05-04 19:05 | 41.26916 | 28.72509 | 332 ft | 60 kts | 358° |
| 2026-05-04 19:05 | 41.27571 | 28.72495 | 330 ft | 122 kts | 359° |
| 2026-05-04 19:05 | 41.28579 | 28.72477 | 423 ft | 159 kts | 358° |
| 2026-05-04 19:06 | 41.29682 | 28.72483 | 1144 ft | 159 kts | 0° |
| 2026-05-04 19:06 | 41.30779 | 28.72485 | 1939 ft | 157 kts | 1° |
| 2026-05-04 19:06 | 41.31861 | 28.72487 | 2745 ft | 155 kts | 1° |
| 2026-05-04 19:06 | 41.32919 | 28.72491 | 3538 ft | 154 kts | 1° |
| 2026-05-04 19:07 | 41.34048 | 28.72500 | 4014 ft | 170 kts | 1° |
| 2026-05-04 19:07 | 41.35312 | 28.72513 | 4309 ft | 194 kts | 1° |
| 2026-05-04 19:07 | 41.36753 | 28.72494 | 4737 ft | 220 kts | 354° |
| 2026-05-04 19:07 | 41.38165 | 28.71563 | 5432 ft | 243 kts | 318° |
| 2026-05-04 19:08 | 41.38906 | 28.69463 | 6370 ft | 265 kts | 286° |
| 2026-05-04 19:08 | 41.38954 | 28.66953 | 7288 ft | 277 kts | 273° |
| 2026-05-04 19:08 | 41.38739 | 28.64364 | 8152 ft | 286 kts | 270° |
| 2026-05-04 19:08 | 41.38476 | 28.61712 | 9008 ft | 291 kts | 270° |
| 2026-05-04 19:09 | 41.37937 | 28.59040 | 9817 ft | 311 kts | 248° |
| 2026-05-04 19:09 | 41.36594 | 28.56755 | 10479 ft | 331 kts | 224° |
| 2026-05-04 19:09 | 41.34495 | 28.55268 | 10765 ft | 357 kts | 193° |
| 2026-05-04 19:09 | 41.31961 | 28.54889 | 11053 ft | 376 kts | 180° |
| 2026-05-04 19:10 | 41.29319 | 28.54920 | 11670 ft | 381 kts | 171° |
| 2026-05-04 19:10 | 41.26746 | 28.55730 | 12397 ft | 381 kts | 156° |
| 2026-05-04 19:10 | 41.24340 | 28.57180 | 13156 ft | 380 kts | 147° |
| 2026-05-04 19:10 | 41.22133 | 28.59105 | 13922 ft | 379 kts | 137° |
| 2026-05-04 19:11 | 41.20171 | 28.61433 | 14580 ft | 379 kts | 131° |
| 2026-05-04 19:11 | 41.18253 | 28.63848 | 15234 ft | 382 kts | 131° |
| 2026-05-04 19:11 | 41.16315 | 28.66302 | 15867 ft | 386 kts | 131° |
| 2026-05-04 19:11 | 41.14999 | 28.67976 | 16282 ft | 389 kts | 130° |
| 2026-05-04 19:12 | 41.08102 | 28.80258 | 18827 ft | 396 kts | 116° |
| 2026-05-04 19:13 | 41.06627 | 28.83266 | 19368 ft | 399 kts | 116° |
| 2026-05-04 19:13 | 41.05033 | 28.86154 | 19920 ft | 409 kts | 126° |
| 2026-05-04 19:13 | 41.02896 | 28.88689 | 20471 ft | 422 kts | 139° |
| 2026-05-04 19:13 | 41.00288 | 28.90581 | 21009 ft | 434 kts | 154° |
| 2026-05-04 19:14 | 40.97335 | 28.91644 | 21524 ft | 445 kts | 168° |
| 2026-05-04 19:14 | 40.94216 | 28.91756 | 22017 ft | 453 kts | 183° |
| 2026-05-04 19:14 | 40.91105 | 28.91355 | 22502 ft | 457 kts | 184° |
| 2026-05-04 19:14 | 40.87930 | 28.90982 | 22992 ft | 459 kts | 180° |
| 2026-05-04 19:15 | 40.84740 | 28.91082 | 23467 ft | 460 kts | 173° |
| 2026-05-04 19:15 | 40.81565 | 28.91592 | 23894 ft | 458 kts | 162° |
| 2026-05-04 19:15 | 40.78608 | 28.93061 | 24269 ft | 452 kts | 146° |
| 2026-05-04 19:15 | 40.76081 | 28.95452 | 24650 ft | 442 kts | 129° |
| 2026-05-04 19:16 | 40.74153 | 28.98537 | 25067 ft | 432 kts | 114° |
| 2026-05-04 19:16 | 40.72908 | 29.02078 | 25443 ft | 421 kts | 100° |
| 2026-05-04 19:16 | 40.72356 | 29.05801 | 25836 ft | 412 kts | 87° |
| 2026-05-04 19:16 | 40.72166 | 29.09574 | 26237 ft | 413 kts | 86° |
| 2026-05-04 19:17 | 40.71982 | 29.13379 | 26653 ft | 415 kts | 87° |
| 2026-05-04 19:17 | 40.71796 | 29.17190 | 27064 ft | 417 kts | 87° |
| 2026-05-04 19:17 | 40.71608 | 29.21020 | 27476 ft | 420 kts | 87° |
| 2026-05-04 19:17 | 40.71418 | 29.24872 | 27891 ft | 422 kts | 87° |
| 2026-05-04 19:18 | 40.71223 | 29.28741 | 28342 ft | 424 kts | 87° |
| 2026-05-04 19:18 | 40.71026 | 29.32625 | 28729 ft | 426 kts | 87° |
| 2026-05-04 19:18 | 40.70827 | 29.36490 | 29107 ft | 429 kts | 87° |
| 2026-05-04 19:18 | 40.70623 | 29.40421 | 29506 ft | 431 kts | 87° |
| 2026-05-04 19:19 | 40.70419 | 29.44376 | 29874 ft | 434 kts | 87° |
| 2026-05-04 19:19 | 40.70215 | 29.48355 | 30237 ft | 436 kts | 88° |
| 2026-05-04 19:19 | 40.70005 | 29.52356 | 30654 ft | 436 kts | 88° |
| 2026-05-04 19:19 | 40.69791 | 29.56340 | 31199 ft | 434 kts | 88° |
| 2026-05-04 19:20 | 40.69576 | 29.60293 | 31729 ft | 431 kts | 88° |
| 2026-05-04 19:20 | 40.69364 | 29.64221 | 32240 ft | 430 kts | 88° |
| 2026-05-04 19:20 | 40.69153 | 29.68146 | 32779 ft | 428 kts | 88° |
| 2026-05-04 19:20 | 40.68945 | 29.72062 | 33010 ft | 428 kts | 88° |
| 2026-05-04 19:21 | 40.68736 | 29.75966 | 33055 ft | 426 kts | 88° |
| 2026-05-04 19:21 | 40.68312 | 29.83741 | 33089 ft | 425 kts | 88° |
| 2026-05-04 19:22 | 40.67881 | 29.91488 | 33053 ft | 424 kts | 88° |
| 2026-05-04 19:22 | 40.67441 | 29.99243 | 33054 ft | 425 kts | 88° |
| 2026-05-04 19:23 | 40.66987 | 30.07006 | 33056 ft | 425 kts | 88° |
| 2026-05-04 19:23 | 40.66542 | 30.14718 | 33083 ft | 425 kts | 88° |
| 2026-05-04 19:24 | 40.66092 | 30.22492 | 33068 ft | 426 kts | 88° |
| 2026-05-04 19:24 | 40.65633 | 30.30280 | 33055 ft | 427 kts | 88° |
| 2026-05-04 19:25 | 40.65168 | 30.38077 | 33048 ft | 427 kts | 88° |
| 2026-05-04 19:25 | 40.64703 | 30.45885 | 33072 ft | 428 kts | 88° |
| 2026-05-04 19:26 | 40.64232 | 30.53701 | 33048 ft | 428 kts | 88° |
| 2026-05-04 19:26 | 40.63747 | 30.61519 | 33040 ft | 428 kts | 89° |
| 2026-05-04 19:27 | 40.62970 | 30.69324 | 33029 ft | 436 kts | 99° |
| 2026-05-04 19:27 | 40.60437 | 30.76700 | 33028 ft | 452 kts | 116° |
| 2026-05-04 19:28 | 40.57053 | 30.83618 | 33025 ft | 452 kts | 116° |
| 2026-05-04 19:28 | 40.53642 | 30.90587 | 33029 ft | 453 kts | 116° |
| 2026-05-04 19:29 | 40.50227 | 30.97549 | 33058 ft | 453 kts | 116° |
| 2026-05-04 19:29 | 40.46809 | 31.04516 | 33044 ft | 453 kts | 116° |
| 2026-05-04 19:30 | 40.43391 | 31.11476 | 33028 ft | 454 kts | 116° |
| 2026-05-04 19:30 | 40.39967 | 31.18435 | 33027 ft | 453 kts | 115° |
| 2026-05-04 19:31 | 40.37528 | 31.25866 | 33049 ft | 438 kts | 98° |
| 2026-05-04 19:31 | 40.36244 | 31.33653 | 33018 ft | 437 kts | 96° |
| 2026-05-04 19:32 | 40.34976 | 31.41403 | 33000 ft | 438 kts | 96° |
| 2026-05-04 19:32 | 40.33698 | 31.49205 | 32999 ft | 438 kts | 96° |
| 2026-05-04 19:33 | 40.32415 | 31.57025 | 33002 ft | 440 kts | 96° |
| 2026-05-04 19:33 | 40.31121 | 31.64869 | 32989 ft | 441 kts | 96° |
| 2026-05-04 19:34 | 40.29820 | 31.72710 | 32986 ft | 441 kts | 96° |
| 2026-05-04 19:34 | 40.28515 | 31.80559 | 33000 ft | 441 kts | 96° |
| 2026-05-04 19:35 | 40.27208 | 31.88366 | 32988 ft | 442 kts | 97° |
| 2026-05-04 19:35 | 40.25795 | 31.96223 | 32980 ft | 445 kts | 99° |
| 2026-05-04 19:36 | 40.24087 | 32.04014 | 32971 ft | 446 kts | 101° |
| 2026-05-04 19:36 | 40.22301 | 32.11805 | 32985 ft | 447 kts | 102° |
| 2026-05-04 19:37 | 40.20558 | 32.19637 | 32962 ft | 448 kts | 101° |
| 2026-05-04 19:37 | 40.18866 | 32.27434 | 32943 ft | 449 kts | 101° |
| 2026-05-04 19:38 | 40.17156 | 32.35288 | 32969 ft | 450 kts | 102° |
| 2026-05-04 19:38 | 40.15422 | 32.43163 | 32937 ft | 451 kts | 102° |
| 2026-05-04 19:39 | 40.13674 | 32.51057 | 32932 ft | 453 kts | 102° |
| 2026-05-04 19:39 | 40.11920 | 32.58958 | 32938 ft | 453 kts | 102° |
| 2026-05-04 19:40 | 40.10155 | 32.66851 | 32961 ft | 453 kts | 103° |
| 2026-05-04 19:40 | 40.08390 | 32.74751 | 32943 ft | 453 kts | 103° |
| 2026-05-04 19:41 | 40.05939 | 32.82362 | 32934 ft | 460 kts | 119° |
| 2026-05-04 19:41 | 40.02016 | 32.88938 | 32945 ft | 463 kts | 127° |
| 2026-05-04 19:42 | 39.97922 | 32.95433 | 32931 ft | 464 kts | 127° |
| 2026-05-04 19:42 | 39.93827 | 33.01953 | 32921 ft | 464 kts | 127° |
| 2026-05-04 19:43 | 39.89727 | 33.08466 | 32914 ft | 465 kts | 127° |
| 2026-05-04 19:43 | 39.85615 | 33.14984 | 32912 ft | 465 kts | 127° |
| 2026-05-04 19:44 | 39.81595 | 33.21336 | 32931 ft | 465 kts | 128° |
| 2026-05-04 19:44 | 39.77484 | 33.27825 | 32928 ft | 465 kts | 128° |
| 2026-05-04 19:45 | 39.73367 | 33.34292 | 32918 ft | 464 kts | 128° |
| 2026-05-04 19:45 | 39.69241 | 33.40763 | 32902 ft | 465 kts | 128° |
| 2026-05-04 19:45 | 39.67179 | 33.43998 | 32653 ft | 464 kts | 128° |
| 2026-05-04 19:46 | 39.65123 | 33.47218 | 32400 ft | 464 kts | 128° |
| 2026-05-04 19:46 | 39.63065 | 33.50443 | 32140 ft | 463 kts | 128° |
| 2026-05-04 19:46 | 39.61009 | 33.53659 | 31896 ft | 463 kts | 128° |
| 2026-05-04 19:46 | 39.58977 | 33.56828 | 31660 ft | 463 kts | 128° |
| 2026-05-04 19:47 | 39.56920 | 33.60036 | 31404 ft | 463 kts | 128° |
| 2026-05-04 19:47 | 39.54887 | 33.63270 | 31157 ft | 462 kts | 127° |
| 2026-05-04 19:47 | 39.52877 | 33.66521 | 30925 ft | 462 kts | 127° |
| 2026-05-04 19:47 | 39.50872 | 33.69781 | 30690 ft | 461 kts | 127° |
| 2026-05-04 19:48 | 39.48876 | 33.73025 | 30450 ft | 460 kts | 127° |
| 2026-05-04 19:48 | 39.46874 | 33.76270 | 30215 ft | 460 kts | 127° |
| 2026-05-04 19:48 | 39.44870 | 33.79496 | 29972 ft | 459 kts | 127° |
| 2026-05-04 19:48 | 39.42844 | 33.82689 | 29682 ft | 459 kts | 128° |
| 2026-05-04 19:49 | 39.40796 | 33.85855 | 29410 ft | 458 kts | 128° |
| 2026-05-04 19:49 | 39.38751 | 33.88985 | 29134 ft | 454 kts | 129° |
| 2026-05-04 19:49 | 39.36714 | 33.92095 | 28844 ft | 451 kts | 129° |
| 2026-05-04 19:50 | 39.32892 | 33.97965 | 28324 ft | 444 kts | 129° |
| 2026-05-04 19:50 | 39.30919 | 34.01021 | 28048 ft | 441 kts | 129° |
| 2026-05-04 19:50 | 39.28965 | 34.04058 | 27775 ft | 437 kts | 129° |
| 2026-05-04 19:50 | 39.27033 | 34.07065 | 27508 ft | 434 kts | 129° |
| 2026-05-04 19:51 | 39.25113 | 34.10046 | 27237 ft | 430 kts | 129° |
| 2026-05-04 19:51 | 39.23223 | 34.12973 | 26975 ft | 429 kts | 129° |
| 2026-05-04 19:51 | 39.21316 | 34.15922 | 26714 ft | 428 kts | 129° |
| 2026-05-04 19:51 | 39.19412 | 34.18859 | 26480 ft | 427 kts | 129° |
| 2026-05-04 19:52 | 39.17509 | 34.21792 | 26202 ft | 424 kts | 130° |
| 2026-05-04 19:52 | 39.15623 | 34.24700 | 25946 ft | 421 kts | 130° |
| 2026-05-04 19:52 | 39.13888 | 34.27711 | 25696 ft | 418 kts | 122° |
| 2026-05-04 19:52 | 39.12498 | 34.30985 | 25448 ft | 415 kts | 115° |
| 2026-05-04 19:53 | 39.11457 | 34.34445 | 25195 ft | 413 kts | 108° |
| 2026-05-04 19:53 | 39.10795 | 34.38034 | 24944 ft | 411 kts | 100° |
| 2026-05-04 19:53 | 39.10489 | 34.41687 | 24706 ft | 409 kts | 96° |
| 2026-05-04 19:53 | 39.10259 | 34.45327 | 24463 ft | 407 kts | 96° |
| 2026-05-04 19:54 | 39.10033 | 34.48951 | 24218 ft | 404 kts | 96° |
| 2026-05-04 19:54 | 39.09809 | 34.52542 | 23981 ft | 401 kts | 96° |
| 2026-05-04 19:54 | 39.09586 | 34.56110 | 23735 ft | 399 kts | 96° |
| 2026-05-04 19:54 | 39.09364 | 34.59645 | 23502 ft | 393 kts | 96° |
| 2026-05-04 19:55 | 39.09142 | 34.63124 | 23226 ft | 390 kts | 96° |
| 2026-05-04 19:55 | 39.08916 | 34.66603 | 22940 ft | 388 kts | 96° |
| 2026-05-04 19:55 | 39.08692 | 34.70046 | 22662 ft | 387 kts | 96° |
| 2026-05-04 19:55 | 39.08468 | 34.73487 | 22380 ft | 385 kts | 96° |
| 2026-05-04 19:56 | 39.08243 | 34.76929 | 22102 ft | 386 kts | 96° |
| 2026-05-04 19:56 | 39.08021 | 34.80329 | 21835 ft | 386 kts | 96° |
| 2026-05-04 19:56 | 39.07795 | 34.83766 | 21559 ft | 385 kts | 96° |
| 2026-05-04 19:56 | 39.07569 | 34.87203 | 21285 ft | 384 kts | 96° |
| 2026-05-04 19:57 | 39.07344 | 34.90616 | 21026 ft | 383 kts | 96° |
| 2026-05-04 19:57 | 39.07117 | 34.94028 | 20765 ft | 382 kts | 96° |
| 2026-05-04 19:57 | 39.06889 | 34.97426 | 20504 ft | 381 kts | 96° |
| 2026-05-04 19:57 | 39.06661 | 35.00820 | 20240 ft | 381 kts | 96° |
| 2026-05-04 19:58 | 39.06432 | 35.04233 | 19986 ft | 382 kts | 96° |
| 2026-05-04 19:58 | 39.06201 | 35.07648 | 19728 ft | 382 kts | 96° |
| 2026-05-04 19:58 | 39.05970 | 35.11039 | 19469 ft | 381 kts | 96° |
| 2026-05-04 19:58 | 39.05740 | 35.14425 | 19226 ft | 380 kts | 96° |
| 2026-05-04 19:59 | 39.05508 | 35.17812 | 18971 ft | 379 kts | 96° |
| 2026-05-04 19:59 | 39.05277 | 35.21131 | 18738 ft | 378 kts | 96° |
| 2026-05-04 19:59 | 39.05043 | 35.24500 | 18496 ft | 377 kts | 96° |
| 2026-05-04 19:59 | 39.04810 | 35.27862 | 18249 ft | 377 kts | 96° |
| 2026-05-04 20:00 | 39.04579 | 35.31189 | 17748 ft | 371 kts | 96° |
| 2026-05-04 20:00 | 39.04352 | 35.34472 | 17208 ft | 366 kts | 96° |
| 2026-05-04 20:00 | 39.04063 | 35.37694 | 16671 ft | 360 kts | 102° |
| 2026-05-04 20:00 | 39.03418 | 35.40785 | 16102 ft | 356 kts | 108° |
| 2026-05-04 20:01 | 39.02682 | 35.43816 | 15535 ft | 354 kts | 108° |
| 2026-05-04 20:01 | 39.01952 | 35.46831 | 14961 ft | 353 kts | 108° |
| 2026-05-04 20:01 | 39.01228 | 35.49839 | 14382 ft | 351 kts | 108° |
| 2026-05-04 20:01 | 39.00505 | 35.52843 | 13817 ft | 351 kts | 108° |
| 2026-05-04 20:02 | 38.99790 | 35.55797 | 13210 ft | 350 kts | 107° |
| 2026-05-04 20:02 | 38.99066 | 35.58780 | 12635 ft | 349 kts | 108° |
| 2026-05-04 20:02 | 38.98346 | 35.61749 | 12065 ft | 348 kts | 108° |
| 2026-05-04 20:02 | 38.97620 | 35.64744 | 11489 ft | 347 kts | 108° |
| 2026-05-04 20:03 | 38.96912 | 35.67668 | 10928 ft | 346 kts | 108° |
| 2026-05-04 20:03 | 38.96197 | 35.70612 | 10473 ft | 342 kts | 108° |
| 2026-05-04 20:03 | 38.95502 | 35.73465 | 10344 ft | 328 kts | 108° |
| 2026-05-04 20:03 | 38.94834 | 35.76203 | 10256 ft | 315 kts | 108° |
| 2026-05-04 20:04 | 38.94180 | 35.78839 | 10156 ft | 303 kts | 110° |
| 2026-05-04 20:04 | 38.93133 | 35.81098 | 10030 ft | 290 kts | 136° |
| 2026-05-04 20:04 | 38.91507 | 35.82505 | 9897 ft | 277 kts | 162° |
| 2026-05-04 20:04 | 38.89635 | 35.82918 | 9435 ft | 275 kts | 187° |
| 2026-05-04 20:05 | 38.87823 | 35.82279 | 9071 ft | 270 kts | 210° |
| 2026-05-04 20:05 | 38.86232 | 35.81057 | 8667 ft | 270 kts | 213° |
| 2026-05-04 20:05 | 38.84623 | 35.79797 | 8228 ft | 268 kts | 213° |
| 2026-05-04 20:05 | 38.83177 | 35.78389 | 7810 ft | 256 kts | 229° |
| 2026-05-04 20:06 | 38.82202 | 35.76541 | 7444 ft | 246 kts | 247° |
| 2026-05-04 20:06 | 38.81716 | 35.74486 | 7121 ft | 236 kts | 257° |
| 2026-05-04 20:06 | 38.81351 | 35.72513 | 7006 ft | 218 kts | 257° |
| 2026-05-04 20:06 | 38.81011 | 35.70697 | 7009 ft | 206 kts | 257° |
| 2026-05-04 20:07 | 38.80677 | 35.68911 | 7011 ft | 205 kts | 257° |
| 2026-05-04 20:07 | 38.80355 | 35.67176 | 6928 ft | 197 kts | 257° |
| 2026-05-04 20:07 | 38.80046 | 35.65477 | 6466 ft | 195 kts | 257° |
| 2026-05-04 20:07 | 38.79740 | 35.63834 | 5990 ft | 179 kts | 257° |
| 2026-05-04 20:08 | 38.79463 | 35.62366 | 5488 ft | 161 kts | 257° |
| 2026-05-04 20:08 | 38.79214 | 35.61041 | 5161 ft | 145 kts | 256° |
| 2026-05-04 20:08 | 38.78984 | 35.59822 | 4914 ft | 138 kts | 256° |
| 2026-05-04 20:08 | 38.78764 | 35.58657 | 4699 ft | 135 kts | 256° |
| 2026-05-04 20:09 | 38.78541 | 35.57486 | 4481 ft | 136 kts | 255° |
| 2026-05-04 20:09 | 38.78318 | 35.56295 | 4322 ft | 138 kts | 257° |
| 2026-05-04 20:09 | 38.78096 | 35.55096 | 4178 ft | 138 kts | 257° |
| 2026-05-04 20:09 | 38.77870 | 35.53898 | 3987 ft | 137 kts | 257° |
| 2026-05-04 20:10 | 38.77648 | 35.52705 | 3801 ft | 138 kts | 256° |
| 2026-05-04 20:10 | 38.77422 | 35.51521 | 3561 ft | 136 kts | 257° |
| 2026-05-04 20:10 | 38.77208 | 35.50394 | 3466 ft | 118 kts | 257° |
| 2026-05-04 20:10 | 38.77047 | 35.49563 | 3466 ft | 72 kts | 256° |
| 2026-05-04 20:11 | 38.76986 | 35.49240 | 3466 ft | 45 kts | 256° |
| 2026-05-04 20:11 | 38.76912 | 35.48866 | 3465 ft | 42 kts | 256° |
| 2026-05-04 20:11 | 38.76870 | 35.48646 | 3467 ft | 11 kts | 256° |
| 2026-05-04 20:11 | 38.76805 | 35.48628 | 3468 ft | 12 kts | 163° |
| 2026-05-04 20:12 | 38.76761 | 35.48644 | 3468 ft | 1 kts | 164° |
| 2026-05-04 20:12 | 38.76744 | 35.48646 | 3468 ft | 6 kts | 187° |
| 2026-05-04 20:12 | 38.76710 | 35.48542 | 3468 ft | 12 kts | 256° |
| 2026-05-04 20:12 | 38.76698 | 35.48512 | 3467 ft | 4 kts | 217° |
| 2026-05-04 20:13 | 38.76663 | 35.48525 | 3468 ft | 6 kts | 163° |
| 2026-05-04 20:13 | 38.76632 | 35.48536 | 3468 ft | 0 kts | 165° |
| 2026-05-04 20:13 | 38.76630 | 35.48537 | 3468 ft | 0 kts | 165° |